Time;durP1;ratioP1;P1;durP2;ratioP2;P2;SDS_P1;SDS_P2;PMS_P1;PMS_P2;Temp;Humidity;BMP_temperature;BMP_pressure;BME280_temperature;BME280_humidity;BME280_pressure;Samples;Min_cycle;Max_cycle;Signal;HPM_P1;HPM_P2
2022/06/04 00:00:36;;;;;;;;;;;;;;;;;;5117405;27;20389;-80
2022/06/04 00:03:03;;;;;;;;;;;19.00;97.20;;;;;;5113083;27;19943;-80
2022/06/04 00:05:32;;;;;;;;;;;19.00;97.50;;;;;;5115156;27;20599;-80
2022/06/04 00:08:00;;;;;;;;;;;19.00;97.50;;;;;;5123015;27;19961;-80
2022/06/04 00:15:59;;;;;;;;;;;18.80;97.50;;;;;;5111155;27;19920;-79
2022/06/04 00:18:26;;;;;;;;;;;18.80;97.40;;;;;;5119830;27;19924;-80
2022/06/04 00:20:54;;;;;;;;;;;18.80;97.40;;;;;;5125950;27;19928;-80
2022/06/04 00:23:22;;;;;;;;;;;18.80;97.40;;;;;;5114669;27;19991;-80
2022/06/04 00:25:51;;;;;;;;;;;18.80;97.40;;;;;;5102509;27;19928;-81
2022/06/04 00:28:19;;;;;;;;;;;18.70;97.40;;;;;;5116644;27;19981;-80
2022/06/04 00:30:46;;;;;;;;;;;18.70;97.40;;;;;;5098627;27;20278;-81
2022/06/04 00:33:14;;;;;;;;;;;18.70;97.40;;;;;;5117640;27;20275;-80
2022/06/04 00:35:41;;;;;;;;;;;18.70;97.40;;;;;;5118572;27;19923;-80
2022/06/04 00:38:08;;;;;;;;;;;18.60;97.30;;;;;;5111677;27;19934;-81
2022/06/04 00:40:40;;;;;;;;;;;18.60;97.40;;;;;;5101593;28;19924;-80
2022/06/04 00:43:09;;;;;;;;;;;18.60;97.40;;;;;;5113234;27;20474;-80
2022/06/04 00:46:09;;;;;;;;;;;18.60;97.30;;;;;;5119439;27;20385;-80
2022/06/04 00:48:35;;;;;;;;;;;18.60;97.30;;;;;;5118559;27;19923;-79
2022/06/04 00:51:03;;;;;;;;;;;18.50;97.20;;;;;;5094930;27;19924;-80
2022/06/04 00:53:30;;;;;;;;;;;18.50;97.30;;;;;;5103668;27;19924;-80
2022/06/04 00:56:00;;;;;;;;;;;18.50;97.30;;;;;;5120413;27;20026;-81
2022/06/04 00:58:37;;;;;;;;;;;18.50;97.30;;;;;;5113970;27;19931;-81
2022/06/04 01:01:10;;;;;;;;;;;18.40;97.30;;;;;;5102075;27;19923;-81
2022/06/04 01:03:44;;;;;;;;;;;18.40;97.30;;;;;;5125048;27;20000;-80
2022/06/04 01:06:19;;;;;;;;;;;18.40;97.30;;;;;;5117780;27;20390;-80
2022/06/04 01:09:03;;;;;;;;;;;18.40;97.30;;;;;;5117697;27;19923;-80
2022/06/04 01:11:35;;;;;;;;;;;18.30;97.20;;;;;;5094911;28;19924;-80
2022/06/04 01:14:10;;;;;;;;;;;18.30;97.20;;;;;;5117562;27;19923;-80
2022/06/04 01:16:41;;;;;;;;;;;18.30;97.20;;;;;;5111550;28;19938;-80
2022/06/04 01:19:21;;;;;;;;;;;18.30;97.20;;;;;;5119123;27;19938;-80
2022/06/04 01:22:02;;;;;;;;;;;18.20;97.20;;;;;;5097986;28;19923;-80
2022/06/04 01:24:39;;;;;;;;;;;18.20;97.20;;;;;;5120649;28;19950;-80
2022/06/04 01:27:13;;;;;;;;;;;18.20;97.10;;;;;;5117812;28;19937;-80
2022/06/04 01:29:48;;;;;;;;;;;18.20;97.20;;;;;;5119460;28;20290;-80
2022/06/04 01:32:19;;;;;;;;;;;18.20;97.20;;;;;;5103104;28;20051;-80
2022/06/04 01:34:50;;;;;;;;;;;18.10;97.10;;;;;;5107493;28;19924;-80
2022/06/04 01:37:19;;;;;;;;;;;18.10;97.10;;;;;;5106159;28;20384;-80
2022/06/04 01:42:36;;;;;;;;;;;18.10;97.20;;;;;;5114813;28;19924;-80
2022/06/04 01:45:05;;;;;;;;;;;18.10;97.20;;;;;;5121292;27;19939;-80
2022/06/04 01:47:33;;;;;;;;;;;18.00;97.10;;;;;;5121687;27;19934;-80
2022/06/04 01:50:02;;;;;;;;;;;18.00;97.20;;;;;;5116361;27;19978;-82
2022/06/04 01:52:31;;;;;;;;;;;18.00;97.10;;;;;;5098578;27;20342;-80
2022/06/04 01:55:00;;;;;;;;;;;18.00;97.20;;;;;;5122903;27;20027;-82
2022/06/04 01:57:32;;;;;;;;;;;18.00;97.20;;;;;;5118784;27;20386;-81
2022/06/04 02:00:01;;;;;;;;;;;18.00;97.20;;;;;;5108769;27;19932;-80
2022/06/04 02:02:30;;;;;;;;;;;17.90;97.20;;;;;;5116662;27;19923;-81
2022/06/04 02:05:00;;;;;;;;;;;17.90;97.20;;;;;;5123870;27;19927;-80
2022/06/04 02:07:33;;;;;;;;;;;17.90;97.20;;;;;;5161595;22;19948;-84
2022/06/04 02:10:02;;;;;;;;;;;17.90;97.30;;;;;;5075865;28;19932;-84
2022/06/04 02:12:33;;;;;;;;;;;17.90;97.50;;;;;;5076141;28;19935;-85
2022/06/04 02:15:01;;;;;;;;;;;17.90;97.70;;;;;;5090777;28;19992;-84
2022/06/04 02:17:29;;;;;;;;;;;17.80;97.70;;;;;;5056480;28;20481;-84
2022/06/04 02:19:56;;;;;;;;;;;17.80;97.70;;;;;;5076205;28;19931;-84
2022/06/04 02:22:23;;;;;;;;;;;17.80;97.70;;;;;;5075103;28;19924;-83
2022/06/04 02:24:50;;;;;;;;;;;17.80;97.70;;;;;;5055793;28;19928;-84
2022/06/04 02:27:17;;;;;;;;;;;17.80;97.80;;;;;;5073081;28;19929;-84
2022/06/04 02:29:43;;;;;;;;;;;17.80;98.10;;;;;;5076844;28;20396;-84
2022/06/04 02:32:16;;;;;;;;;;;17.80;98.00;;;;;;5056773;28;19974;-84
2022/06/04 02:34:46;;;;;;;;;;;17.80;98.00;;;;;;5082558;28;20019;-84
2022/06/04 02:37:15;;;;;;;;;;;17.70;98.00;;;;;;5074940;28;19925;-84
2022/06/04 02:39:48;;;;;;;;;;;17.80;98.00;;;;;;5079538;28;19932;-84
2022/06/04 02:42:19;;;;;;;;;;;17.70;97.90;;;;;;5074735;28;20427;-84
2022/06/04 02:44:48;;;;;;;;;;;17.70;97.90;;;;;;5071455;28;19931;-86
2022/06/04 02:47:18;;;;;;;;;;;17.70;97.80;;;;;;5072092;28;19924;-84
2022/06/04 02:49:49;;;;;;;;;;;17.70;97.80;;;;;;5071121;28;19943;-86
2022/06/04 02:52:16;;;;;;;;;;;17.60;97.70;;;;;;5058429;28;19998;-86
2022/06/04 02:54:47;;;;;;;;;;;17.60;97.70;;;;;;5083040;28;20027;-85
2022/06/04 02:57:15;;;;;;;;;;;17.60;97.70;;;;;;5073335;28;20390;-86
2022/06/04 02:59:43;;;;;;;;;;;17.60;97.70;;;;;;5073697;28;19935;-86
2022/06/04 03:02:11;;;;;;;;;;;17.60;97.70;;;;;;5075315;28;19933;-86
2022/06/04 03:04:43;;;;;;;;;;;17.60;97.70;;;;;;5076921;28;19996;-86
2022/06/04 03:07:11;;;;;;;;;;;17.50;97.60;;;;;;5071434;28;19929;-86
2022/06/04 03:09:39;;;;;;;;;;;17.50;97.60;;;;;;5072020;28;19956;-86
2022/06/04 03:12:06;;;;;;;;;;;17.50;97.60;;;;;;5064385;28;19925;-86
2022/06/04 03:14:34;;;;;;;;;;;17.50;97.60;;;;;;5053709;28;19933;-86
2022/06/04 03:17:01;;;;;;;;;;;17.50;97.60;;;;;;5088404;28;19928;-86
2022/06/04 03:19:28;;;;;;;;;;;17.50;97.60;;;;;;5076430;28;20019;-86
2022/06/04 03:21:56;;;;;;;;;;;17.50;97.70;;;;;;5053531;28;20456;-86
2022/06/04 03:24:23;;;;;;;;;;;17.40;97.60;;;;;;5069723;28;19925;-86
2022/06/04 03:26:50;;;;;;;;;;;17.40;97.60;;;;;;5055849;28;19928;-86
2022/06/04 03:29:19;;;;;;;;;;;17.40;97.60;;;;;;5076269;28;20461;-86
2022/06/04 03:31:46;;;;;;;;;;;17.40;97.60;;;;;;5057563;28;19947;-86
2022/06/04 03:34:13;;;;;;;;;;;17.40;97.60;;;;;;5051676;28;20360;-86
2022/06/04 03:36:40;;;;;;;;;;;17.40;97.60;;;;;;5076966;28;19931;-86
2022/06/04 03:39:09;;;;;;;;;;;17.30;97.50;;;;;;5076224;28;20050;-84
2022/06/04 03:41:36;;;;;;;;;;;17.30;97.50;;;;;;5052621;28;20053;-86
2022/06/04 03:44:04;;;;;;;;;;;17.30;97.50;;;;;;5069452;28;19956;-86
2022/06/04 03:46:31;;;;;;;;;;;17.30;97.50;;;;;;5075880;28;19932;-86
2022/06/04 03:48:58;;;;;;;;;;;17.30;97.50;;;;;;5056546;28;19930;-86
2022/06/04 03:51:26;;;;;;;;;;;17.30;97.50;;;;;;5058121;28;19924;-86
2022/06/04 03:53:53;;;;;;;;;;;17.30;97.50;;;;;;5054729;28;19929;-86
2022/06/04 03:56:22;;;;;;;;;;;17.20;97.50;;;;;;5053145;28;19984;-86
2022/06/04 03:58:49;;;;;;;;;;;17.20;97.60;;;;;;5078306;28;20433;-84
2022/06/04 04:01:16;;;;;;;;;;;17.20;97.60;;;;;;5075948;28;20456;-84
2022/06/04 04:03:43;;;;;;;;;;;17.20;97.60;;;;;;5076247;28;19933;-85
2022/06/04 04:06:12;;;;;;;;;;;17.20;97.70;;;;;;5077323;28;19984;-84
2022/06/04 04:08:39;;;;;;;;;;;17.20;97.70;;;;;;5058333;28;19928;-85
2022/06/04 04:11:10;;;;;;;;;;;17.20;97.70;;;;;;5088522;28;20038;-84
2022/06/04 04:13:38;;;;;;;;;;;17.20;97.70;;;;;;5078361;28;19931;-84
2022/06/04 04:16:05;;;;;;;;;;;17.10;97.70;;;;;;5075445;28;19925;-85
2022/06/04 04:18:32;;;;;;;;;;;17.10;97.70;;;;;;5072798;28;19929;-84
2022/06/04 04:21:04;;;;;;;;;;;17.10;97.70;;;;;;5059412;28;19925;-84
2022/06/04 04:23:31;;;;;;;;;;;17.10;97.70;;;;;;5067020;28;19986;-84
2022/06/04 04:25:58;;;;;;;;;;;17.10;97.80;;;;;;5074343;28;19985;-84
2022/06/04 04:28:25;;;;;;;;;;;17.10;97.70;;;;;;5059024;28;19954;-85
2022/06/04 04:30:53;;;;;;;;;;;17.10;97.70;;;;;;5072254;28;20435;-84
2022/06/04 04:33:20;;;;;;;;;;;17.10;97.70;;;;;;5070787;28;20649;-85
2022/06/04 04:35:47;;;;;;;;;;;17.10;97.80;;;;;;5060170;28;20360;-85
2022/06/04 04:38:15;;;;;;;;;;;17.00;97.70;;;;;;5059746;28;20435;-84
2022/06/04 04:40:42;;;;;;;;;;;17.00;97.70;;;;;;5073166;28;19936;-84
2022/06/04 04:43:09;;;;;;;;;;;17.00;97.70;;;;;;5055692;28;19978;-84
2022/06/04 04:45:36;;;;;;;;;;;17.00;97.80;;;;;;5055524;28;19932;-85
2022/06/04 04:48:05;;;;;;;;;;;17.00;97.90;;;;;;5057560;28;19940;-85
2022/06/04 04:50:33;;;;;;;;;;;17.00;97.90;;;;;;5052894;28;19935;-84
2022/06/04 04:53:01;;;;;;;;;;;17.00;98.00;;;;;;5054823;28;19956;-84
2022/06/04 04:55:28;;;;;;;;;;;17.00;98.00;;;;;;5075844;28;19932;-85
2022/06/04 04:57:56;;;;;;;;;;;17.00;98.10;;;;;;5076435;28;19932;-85
2022/06/04 05:00:23;;;;;;;;;;;17.00;98.20;;;;;;5063030;28;19928;-84
2022/06/04 05:02:50;;;;;;;;;;;17.00;98.30;;;;;;5060053;28;20460;-84
2022/06/04 05:05:18;;;;;;;;;;;17.00;98.30;;;;;;5071550;28;19932;-84
2022/06/04 05:07:45;;;;;;;;;;;17.00;98.40;;;;;;5086172;28;19925;-85
2022/06/04 05:10:13;;;;;;;;;;;17.00;98.40;;;;;;5074499;28;20547;-84
2022/06/04 05:12:40;;;;;;;;;;;17.00;98.40;;;;;;5074667;28;20425;-84
2022/06/04 05:15:08;;;;;;;;;;;17.00;98.40;;;;;;5056934;28;19925;-85
2022/06/04 05:17:35;;;;;;;;;;;17.00;98.50;;;;;;5055364;28;20056;-84
2022/06/04 05:20:02;;;;;;;;;;;16.90;98.40;;;;;;5072827;28;20356;-84
2022/06/04 05:22:30;;;;;;;;;;;16.90;98.40;;;;;;5076645;28;19968;-84
2022/06/04 05:24:57;;;;;;;;;;;17.00;98.60;;;;;;5074452;28;19984;-84
2022/06/04 05:27:24;;;;;;;;;;;16.90;98.70;;;;;;5075511;28;19931;-84
2022/06/04 05:29:51;;;;;;;;;;;17.00;98.80;;;;;;5076765;28;19925;-85
2022/06/04 05:32:18;;;;;;;;;;;16.90;98.80;;;;;;5076565;28;19924;-86
2022/06/04 05:34:45;;;;;;;;;;;16.90;98.80;;;;;;5072720;28;20463;-84
2022/06/04 05:37:12;;;;;;;;;;;16.90;98.90;;;;;;5069894;28;20015;-85
2022/06/04 05:39:40;;;;;;;;;;;16.90;98.90;;;;;;5073198;28;19929;-84
2022/06/04 05:42:07;;;;;;;;;;;16.90;98.90;;;;;;5072201;28;19935;-84
2022/06/04 05:44:34;;;;;;;;;;;16.90;99.00;;;;;;5051507;28;19929;-85
2022/06/04 05:47:04;;;;;;;;;;;16.90;99.10;;;;;;5078577;28;19924;-84
2022/06/04 05:49:31;;;;;;;;;;;16.90;99.10;;;;;;5076423;28;20000;-85
2022/06/04 05:51:58;;;;;;;;;;;16.90;99.10;;;;;;5060219;28;19925;-85
2022/06/04 05:54:25;;;;;;;;;;;16.90;99.30;;;;;;5052122;28;19987;-85
2022/06/04 05:56:53;;;;;;;;;;;16.90;99.50;;;;;;5055157;28;19939;-85
2022/06/04 05:59:22;;;;;;;;;;;16.90;99.50;;;;;;5071968;28;19939;-84
2022/06/04 06:01:49;;;;;;;;;;;16.90;99.60;;;;;;5072422;28;19974;-85
2022/06/04 06:04:17;;;;;;;;;;;16.90;99.60;;;;;;5053895;28;20024;-84
2022/06/04 06:06:46;;;;;;;;;;;16.90;99.60;;;;;;5090485;28;19925;-84
2022/06/04 06:09:14;;;;;;;;;;;16.90;99.70;;;;;;5069872;28;19928;-86
2022/06/04 06:11:42;;;;;;;;;;;16.90;99.80;;;;;;5072529;28;19934;-85
2022/06/04 06:14:11;;;;;;;;;;;16.90;99.80;;;;;;5090219;28;20003;-85
2022/06/04 06:16:39;;;;;;;;;;;16.90;99.90;;;;;;5076761;28;20337;-85
2022/06/04 06:19:06;;;;;;;;;;;16.90;99.90;;;;;;5073597;28;20287;-85
2022/06/04 06:21:34;;;;;;;;;;;16.90;99.90;;;;;;5073246;28;19924;-84
2022/06/04 06:24:01;;;;;;;;;;;16.90;99.90;;;;;;5057312;28;19931;-85
2022/06/04 06:26:29;;;;;;;;;;;16.90;99.90;;;;;;5075370;28;19924;-85
2022/06/04 06:28:56;;;;;;;;;;;16.90;99.80;;;;;;5055545;28;20458;-85
2022/06/04 06:31:26;;;;;;;;;;;16.90;99.70;;;;;;5079108;28;20023;-84
2022/06/04 06:33:54;;;;;;;;;;;16.90;99.70;;;;;;5059188;28;19930;-85
2022/06/04 06:36:21;;;;;;;;;;;16.90;99.70;;;;;;5062720;28;20564;-85
2022/06/04 06:38:49;;;;;;;;;;;17.00;99.60;;;;;;5072975;28;19977;-85
2022/06/04 06:41:16;;;;;;;;;;;16.90;99.50;;;;;;5059871;28;19928;-85
2022/06/04 06:43:46;;;;;;;;;;;17.00;99.70;;;;;;5077283;28;19932;-85
2022/06/04 06:46:15;;;;;;;;;;;17.00;99.80;;;;;;5069330;28;19969;-85
2022/06/04 06:48:44;;;;;;;;;;;17.00;99.90;;;;;;5073715;28;20398;-85
2022/06/04 06:51:12;;;;;;;;;;;17.00;99.90;;;;;;5060522;28;19931;-84
2022/06/04 06:53:39;;;;;;;;;;;17.00;99.90;;;;;;5076179;28;19964;-84
2022/06/04 06:56:09;;;;;;;;;;;17.10;99.90;;;;;;5071533;28;19978;-84
2022/06/04 06:58:36;;;;;;;;;;;17.10;99.90;;;;;;5059087;28;20303;-85
2022/06/04 07:01:03;;;;;;;;;;;17.10;99.90;;;;;;5079842;28;19939;-85
2022/06/04 07:03:30;;;;;;;;;;;17.20;99.90;;;;;;5076413;28;19999;-85
2022/06/04 07:05:59;;;;;;;;;;;17.20;99.90;;;;;;5060654;28;19932;-85
2022/06/04 07:08:26;;;;;;;;;;;17.20;99.90;;;;;;5071602;28;19935;-85
2022/06/04 07:10:53;;;;;;;;;;;17.30;99.90;;;;;;5055138;28;19930;-84
2022/06/04 07:13:20;;;;;;;;;;;17.30;99.90;;;;;;5072070;28;19931;-84
2022/06/04 07:15:48;;;;;;;;;;;17.30;99.90;;;;;;5070085;28;19932;-84
2022/06/04 07:18:16;;;;;;;;;;;17.30;99.90;;;;;;5071146;28;20610;-85
2022/06/04 07:20:43;;;;;;;;;;;17.30;99.90;;;;;;5076528;28;19931;-84
2022/06/04 07:23:12;;;;;;;;;;;17.30;99.90;;;;;;5056915;28;19925;-85
2022/06/04 07:25:41;;;;;;;;;;;17.30;99.90;;;;;;5069507;28;19928;-85
2022/06/04 07:28:08;;;;;;;;;;;17.40;99.90;;;;;;5074277;28;19924;-85
2022/06/04 07:30:35;;;;;;;;;;;17.50;99.90;;;;;;5057023;28;19935;-86
2022/06/04 07:33:02;;;;;;;;;;;17.50;99.90;;;;;;5065234;28;19930;-85
2022/06/04 07:35:29;;;;;;;;;;;17.50;99.90;;;;;;5075444;28;20015;-85
2022/06/04 07:37:56;;;;;;;;;;;17.50;99.90;;;;;;5093822;28;20019;-84
2022/06/04 07:40:25;;;;;;;;;;;17.50;99.90;;;;;;5073390;28;19925;-85
2022/06/04 07:42:52;;;;;;;;;;;17.60;99.90;;;;;;5070504;28;20382;-84
2022/06/04 07:45:19;;;;;;;;;;;17.60;99.90;;;;;;5072304;28;19943;-84
2022/06/04 07:47:46;;;;;;;;;;;17.60;99.90;;;;;;5078196;28;19924;-85
2022/06/04 07:50:14;;;;;;;;;;;17.60;99.90;;;;;;5073329;28;19930;-84
2022/06/04 07:52:41;;;;;;;;;;;17.60;99.90;;;;;;5073114;28;19970;-85
2022/06/04 07:55:08;;;;;;;;;;;17.70;99.90;;;;;;5071299;28;19925;-84
2022/06/04 07:57:37;;;;;;;;;;;17.70;99.90;;;;;;5058275;28;19931;-84
2022/06/04 08:00:05;;;;;;;;;;;17.70;99.90;;;;;;5083156;28;19939;-84
2022/06/04 08:02:42;;;;;;;;;;;17.70;99.90;;;;;;5073257;28;19946;-85
2022/06/04 08:05:09;;;;;;;;;;;17.70;99.90;;;;;;5068453;28;19925;-85
2022/06/04 08:07:37;;;;;;;;;;;17.80;99.90;;;;;;5074617;28;19924;-86
2022/06/04 08:10:05;;;;;;;;;;;17.80;99.90;;;;;;5078540;28;19933;-85
2022/06/04 08:12:32;;;;;;;;;;;17.80;99.90;;;;;;5092983;22;20275;-81
2022/06/04 08:15:00;;;;;;;;;;;17.80;99.90;;;;;;5069968;28;19925;-81
2022/06/04 08:17:27;;;;;;;;;;;17.80;99.90;;;;;;5070424;28;19950;-81
2022/06/04 08:19:54;;;;;;;;;;;17.90;99.90;;;;;;5062143;28;20011;-81
2022/06/04 08:22:21;;;;;;;;;;;17.90;99.90;;;;;;5062820;28;19979;-82
2022/06/04 08:24:48;;;;;;;;;;;17.90;99.90;;;;;;5067018;28;19932;-81
2022/06/04 08:27:15;;;;;;;;;;;17.90;99.90;;;;;;5066025;28;19992;-81
2022/06/04 08:29:43;;;;;;;;;;;18.00;99.90;;;;;;5062111;28;20180;-81
2022/06/04 08:32:11;;;;;;;;;;;18.00;99.90;;;;;;5059293;28;19924;-80
2022/06/04 08:34:38;;;;;;;;;;;18.10;99.90;;;;;;5064970;28;19925;-80
2022/06/04 08:37:06;;;;;;;;;;;18.10;99.90;;;;;;5064715;28;19932;-80
2022/06/04 08:39:34;;;;;;;;;;;18.10;99.90;;;;;;5045554;28;20016;-80
2022/06/04 08:42:05;;;;;;;;;;;18.20;99.90;;;;;;5067759;28;20299;-80
2022/06/04 08:44:33;;;;;;;;;;;18.20;99.90;;;;;;5060067;28;19924;-80
2022/06/04 08:47:05;;;;;;;;;;;18.20;99.90;;;;;;5062538;28;20379;-80
2022/06/04 08:49:34;;;;;;;;;;;18.20;99.90;;;;;;5066735;28;20417;-80
2022/06/04 08:52:02;;;;;;;;;;;18.30;99.90;;;;;;5066659;28;20298;-80
2022/06/04 08:57:36;;;;;;;;;;;18.30;99.90;;;;;;5027881;28;19935;-80
2022/06/04 09:00:06;;;;;;;;;;;18.40;99.90;;;;;;5066370;28;20851;-81
2022/06/04 09:02:39;;;;;;;;;;;18.40;99.90;;;;;;5063493;28;19931;-80
2022/06/04 09:05:15;;;;;;;;;;;18.40;99.90;;;;;;5061518;28;19925;-80
2022/06/04 09:07:45;;;;;;;;;;;18.50;99.90;;;;;;5066587;28;20400;-80
2022/06/04 09:10:14;;;;;;;;;;;18.50;99.90;;;;;;5051747;28;20466;-80
2022/06/04 09:12:45;;;;;;;;;;;18.50;99.90;;;;;;5069256;28;19978;-80
2022/06/04 09:15:15;;;;;;;;;;;18.50;99.90;;;;;;5069652;28;20131;-81
2022/06/04 09:17:43;;;;;;;;;;;18.60;99.90;;;;;;5047871;28;19928;-80
2022/06/04 09:20:19;;;;;;;;;;;18.60;99.90;;;;;;5061004;28;19928;-80
2022/06/04 09:22:48;;;;;;;;;;;18.60;99.90;;;;;;5061809;28;20010;-80
2022/06/04 09:25:16;;;;;;;;;;;18.60;99.90;;;;;;5069940;28;20013;-80
2022/06/04 09:27:44;;;;;;;;;;;18.70;99.90;;;;;;5067082;28;20019;-80
2022/06/04 09:30:15;;;;;;;;;;;18.70;99.90;;;;;;5062198;28;19938;-80
2022/06/04 09:32:47;;;;;;;;;;;18.70;99.90;;;;;;5061445;28;19924;-80
2022/06/04 09:35:19;;;;;;;;;;;18.70;99.90;;;;;;5063660;28;19936;-80
2022/06/04 09:37:47;;;;;;;;;;;18.80;99.90;;;;;;5061279;28;19982;-80
2022/06/04 09:40:20;;;;;;;;;;;18.80;99.90;;;;;;5060950;28;20379;-81
2022/06/04 09:42:47;;;;;;;;;;;18.80;99.90;;;;;;5061548;28;19955;-81
2022/06/04 09:45:22;;;;;;;;;;;18.80;99.90;;;;;;5066498;28;20306;-80
2022/06/04 09:47:51;;;;;;;;;;;18.90;99.90;;;;;;5058457;28;20398;-80
2022/06/04 09:50:22;;;;;;;;;;;18.80;99.90;;;;;;5063284;28;19925;-80
2022/06/04 09:52:57;;;;;;;;;;;18.90;99.90;;;;;;5065975;28;19936;-80
2022/06/04 09:55:25;;;;;;;;;;;18.90;99.90;;;;;;5041402;28;19971;-80
2022/06/04 09:57:56;;;;;;;;;;;18.90;99.90;;;;;;5061931;28;19925;-80
2022/06/04 10:00:24;;;;;;;;;;;19.00;99.90;;;;;;5062737;28;20549;-81
2022/06/04 10:02:55;;;;;;;;;;;19.10;99.90;;;;;;5041275;28;19925;-81
2022/06/04 10:05:25;;;;;;;;;;;19.00;99.90;;;;;;5072054;28;19978;-81
2022/06/04 10:07:52;;;;;;;;;;;19.10;99.90;;;;;;5068569;28;19929;-80
2022/06/04 10:10:24;;;;;;;;;;;19.10;99.90;;;;;;5066904;28;19925;-80
2022/06/04 10:15:40;;;;;;;;;;;19.20;99.90;;;;;;5066245;28;19927;-80
2022/06/04 10:18:16;;;;;;;;;;;19.20;99.90;;;;;;5053603;28;19971;-81
2022/06/04 10:20:51;;;;;;;;;;;19.20;99.90;;;;;;5053511;28;19954;-80
2022/06/04 10:23:18;;;;;;;;;;;19.20;99.90;;;;;;5067313;28;19924;-80
2022/06/04 10:25:55;;;;;;;;;;;19.20;99.90;;;;;;5060056;28;19929;-80
2022/06/04 10:28:28;;;;;;;;;;;19.30;99.90;;;;;;5075031;28;19924;-81
2022/06/04 10:30:58;;;;;;;;;;;19.30;99.90;;;;;;5063525;28;19932;-80
2022/06/04 10:33:31;;;;;;;;;;;19.30;99.90;;;;;;5063588;28;19940;-80
2022/06/04 10:36:08;;;;;;;;;;;19.40;99.90;;;;;;5071160;28;19935;-79
2022/06/04 10:38:43;;;;;;;;;;;19.40;99.90;;;;;;5068496;28;20042;-80
2022/06/04 10:41:13;;;;;;;;;;;19.40;99.90;;;;;;5063982;28;19924;-79
2022/06/04 10:43:53;;;;;;;;;;;19.40;99.90;;;;;;5050550;28;19975;-79
2022/06/04 10:46:26;;;;;;;;;;;19.50;99.90;;;;;;5067685;28;20253;-80
2022/06/04 10:48:59;;;;;;;;;;;19.50;99.90;;;;;;5069924;28;19925;-79
2022/06/04 10:51:33;;;;;;;;;;;19.60;99.90;;;;;;5068857;28;19956;-80
2022/06/04 10:54:05;;;;;;;;;;;19.60;99.90;;;;;;5051292;28;19978;-80
2022/06/04 10:56:36;;;;;;;;;;;19.60;99.90;;;;;;5053787;28;19924;-80
2022/06/04 10:59:05;;;;;;;;;;;19.70;99.90;;;;;;5067537;28;19928;-80
2022/06/04 11:01:34;;;;;;;;;;;19.70;99.90;;;;;;5064753;28;19924;-80
2022/06/04 11:04:09;;;;;;;;;;;19.70;99.90;;;;;;5048075;28;19932;-80
2022/06/04 11:06:41;;;;;;;;;;;19.80;99.90;;;;;;5064085;28;19933;-79
2022/06/04 11:09:11;;;;;;;;;;;19.80;99.90;;;;;;5045444;28;20403;-80
2022/06/04 11:11:40;;;;;;;;;;;19.80;99.90;;;;;;5065632;28;19931;-80
2022/06/04 11:14:10;;;;;;;;;;;19.90;99.90;;;;;;5064529;28;20290;-80
2022/06/04 11:16:39;;;;;;;;;;;19.90;99.90;;;;;;5050339;28;20924;-80
2022/06/04 11:19:10;;;;;;;;;;;20.00;99.90;;;;;;5047390;28;19995;-80
2022/06/04 11:21:40;;;;;;;;;;;20.00;99.90;;;;;;5073349;28;19925;-80
2022/06/04 11:24:12;;;;;;;;;;;20.00;99.90;;;;;;5068564;28;20011;-80
2022/06/04 11:26:43;;;;;;;;;;;20.10;99.90;;;;;;5062045;28;19932;-80
2022/06/04 11:29:11;;;;;;;;;;;20.10;99.90;;;;;;5048647;28;19930;-80
2022/06/04 11:31:46;;;;;;;;;;;20.10;99.90;;;;;;5063136;28;20378;-80
2022/06/04 11:34:23;;;;;;;;;;;20.20;99.90;;;;;;5065514;28;19925;-80
2022/06/04 11:36:56;;;;;;;;;;;20.10;99.90;;;;;;5069927;28;20360;-80
2022/06/04 11:39:36;;;;;;;;;;;20.20;99.90;;;;;;5064566;28;20379;-80
2022/06/04 11:42:06;;;;;;;;;;;20.30;99.90;;;;;;5060170;28;20287;-80
2022/06/04 11:44:52;;;;;;;;;;;20.30;99.90;;;;;;5069480;28;19929;-80
2022/06/04 11:47:22;;;;;;;;;;;20.30;99.90;;;;;;5070533;28;19944;-80
2022/06/04 11:49:58;;;;;;;;;;;20.40;99.90;;;;;;5065673;28;19960;-80
2022/06/04 11:52:28;;;;;;;;;;;20.40;99.90;;;;;;5059007;28;19956;-80
2022/06/04 11:55:13;;;;;;;;;;;20.40;99.90;;;;;;5049346;28;19933;-80
2022/06/04 11:57:46;;;;;;;;;;;20.40;99.90;;;;;;5064122;28;19924;-80
2022/06/04 12:00:17;;;;;;;;;;;20.40;99.90;;;;;;5065797;28;19972;-80
2022/06/04 12:02:48;;;;;;;;;;;20.50;99.90;;;;;;5068482;28;19931;-80
2022/06/04 12:05:23;;;;;;;;;;;20.50;99.90;;;;;;5066098;28;20382;-80
2022/06/04 12:07:54;;;;;;;;;;;20.50;99.90;;;;;;5068364;28;20015;-80
2022/06/04 12:10:24;;;;;;;;;;;20.50;99.90;;;;;;5064483;28;19924;-80
2022/06/04 12:12:56;;;;;;;;;;;20.50;99.90;;;;;;5070789;28;19967;-80
2022/06/04 12:15:26;;;;;;;;;;;20.60;99.90;;;;;;5046692;28;20018;-80
2022/06/04 12:17:56;;;;;;;;;;;20.60;99.90;;;;;;5066413;28;19924;-80
2022/06/04 12:26:18;;;;;;;;;;;20.70;99.90;;;;;;5055423;28;19924;-80
2022/06/04 12:28:45;;;;;;;;;;;20.70;99.90;;;;;;5047077;28;19924;-79
2022/06/04 12:31:12;;;;;;;;;;;20.80;99.90;;;;;;5069110;28;19925;-80
2022/06/04 12:33:41;;;;;;;;;;;20.80;99.90;;;;;;5069718;28;19974;-80
2022/06/04 12:36:10;;;;;;;;;;;20.80;99.90;;;;;;5061379;28;20349;-80
2022/06/04 12:38:39;;;;;;;;;;;20.80;99.90;;;;;;5067734;28;19925;-80
2022/06/04 12:41:11;;;;;;;;;;;20.80;99.90;;;;;;5063315;28;20489;-80
2022/06/04 12:43:38;;;;;;;;;;;20.90;99.90;;;;;;5064770;28;19932;-80
2022/06/04 12:46:07;;;;;;;;;;;20.90;99.90;;;;;;5063976;28;20607;-80
2022/06/04 12:48:38;;;;;;;;;;;20.90;99.90;;;;;;5062633;28;20015;-80
2022/06/04 12:51:07;;;;;;;;;;;21.00;99.90;;;;;;5068616;28;19977;-80
2022/06/04 12:53:34;;;;;;;;;;;;;;;;;;5061892;28;19986;-80
2022/06/04 12:56:05;;;;;;;;;;;21.00;99.90;;;;;;5058661;28;20362;-80
2022/06/04 12:58:34;;;;;;;;;;;21.10;99.90;;;;;;5059653;28;20027;-80
2022/06/04 13:01:03;;;;;;;;;;;21.10;99.90;;;;;;5065622;28;20039;-80
2022/06/04 13:03:34;;;;;;;;;;;21.20;99.90;;;;;;5066034;28;19931;-80
2022/06/04 13:06:03;;;;;;;;;;;21.20;99.90;;;;;;5064349;28;19933;-80
2022/06/04 13:08:38;;;;;;;;;;;21.20;99.90;;;;;;5063841;28;20356;-80
2022/06/04 13:11:13;;;;;;;;;;;21.30;99.90;;;;;;5066388;28;19925;-80
2022/06/04 13:13:44;;;;;;;;;;;21.30;99.90;;;;;;5050585;28;20004;-80
2022/06/04 13:16:17;;;;;;;;;;;21.40;99.90;;;;;;5050352;28;20363;-80
2022/06/04 13:18:44;;;;;;;;;;;21.40;99.90;;;;;;5044727;28;20046;-80
2022/06/04 13:21:14;;;;;;;;;;;21.50;99.90;;;;;;5068051;28;19928;-80
2022/06/04 13:23:41;;;;;;;;;;;21.50;99.90;;;;;;5049968;28;19955;-80
2022/06/04 13:26:17;;;;;;;;;;;21.50;99.90;;;;;;5062536;28;19978;-80
2022/06/04 13:28:46;;;;;;;;;;;21.60;99.90;;;;;;5066932;28;19932;-80
2022/06/04 13:31:18;;;;;;;;;;;21.60;99.90;;;;;;5060998;28;19953;-79
2022/06/04 13:33:45;;;;;;;;;;;21.70;99.90;;;;;;5065273;28;19925;-80
2022/06/04 13:36:13;;;;;;;;;;;21.70;99.90;;;;;;5065269;28;20399;-80
2022/06/04 13:38:41;;;;;;;;;;;21.80;99.90;;;;;;5063419;28;20283;-80
2022/06/04 13:41:09;;;;;;;;;;;21.80;99.90;;;;;;5052515;28;19931;-80
2022/06/04 13:43:42;;;;;;;;;;;21.80;99.90;;;;;;5070013;28;19924;-79
2022/06/04 13:46:17;;;;;;;;;;;21.90;99.90;;;;;;5068729;28;19978;-80
2022/06/04 13:48:53;;;;;;;;;;;22.00;99.90;;;;;;5070422;28;19925;-80
2022/06/04 13:51:21;;;;;;;;;;;22.00;99.90;;;;;;5069781;28;20448;-80
2022/06/04 13:53:53;;;;;;;;;;;22.10;99.90;;;;;;5070988;28;20167;-79
2022/06/04 13:56:21;;;;;;;;;;;22.10;99.90;;;;;;5066692;28;19967;-80
2022/06/04 13:58:49;;;;;;;;;;;22.20;99.90;;;;;;5071776;28;19935;-79
2022/06/04 14:01:18;;;;;;;;;;;22.20;99.90;;;;;;5048380;28;19925;-80
2022/06/04 14:03:46;;;;;;;;;;;22.30;99.90;;;;;;5047279;28;19924;-79
2022/06/04 14:06:12;;;;;;;;;;;22.30;99.90;;;;;;5074635;28;19924;-80
2022/06/04 14:08:46;;;;;;;;;;;22.40;99.90;;;;;;5051799;28;19927;-80
2022/06/04 14:11:20;;;;;;;;;;;22.40;99.90;;;;;;5071113;28;19924;-80
2022/06/04 14:13:56;;;;;;;;;;;22.50;99.90;;;;;;5066479;28;19928;-80
2022/06/04 14:16:35;;;;;;;;;;;22.50;99.90;;;;;;5159373;22;19996;-87
2022/06/04 14:19:10;;;;;;;;;;;22.60;99.90;;;;;;5099452;28;20014;-86
2022/06/04 14:21:43;;;;;;;;;;;22.60;99.90;;;;;;5101409;28;19924;-87
2022/06/04 14:24:19;;;;;;;;;;;22.70;99.90;;;;;;5099884;28;20022;-87
2022/06/04 14:26:51;;;;;;;;;;;22.80;99.90;;;;;;5072278;28;20031;-87
2022/06/04 14:29:27;;;;;;;;;;;22.80;99.90;;;;;;5076510;28;19992;-86
2022/06/04 14:32:00;;;;;;;;;;;22.80;99.90;;;;;;5064278;28;19932;-87
2022/06/04 14:34:29;;;;;;;;;;;22.90;99.90;;;;;;5065213;28;19925;-86
2022/06/04 14:36:56;;;;;;;;;;;22.90;99.90;;;;;;5066768;28;19928;-86
2022/06/04 14:39:25;;;;;;;;;;;23.00;99.90;;;;;;5064128;28;20375;-87
2022/06/04 14:42:01;;;;;;;;;;;23.10;99.90;;;;;;5062396;28;19924;-87
2022/06/04 14:44:36;;;;;;;;;;;23.10;99.90;;;;;;5078138;28;19925;-87
2022/06/04 14:47:20;;;;;;;;;;;23.20;99.90;;;;;;5084838;28;19936;-86
2022/06/04 14:50:04;;;;;;;;;;;23.20;99.90;;;;;;5064046;28;20023;-86
2022/06/04 14:52:36;;;;;;;;;;;23.20;99.90;;;;;;5057540;28;19982;-87